Time;durP1;ratioP1;P1;durP2;ratioP2;P2;SDS_P1;SDS_P2;PMS_P1;PMS_P2;Temp;Humidity;BMP_temperature;BMP_pressure;BME280_temperature;BME280_humidity;BME280_pressure;Samples;Min_cycle;Max_cycle;Signal;HPM_P1;HPM_P2
2021/09/15 00:00:03;;;;;;;;;;;22.60;94.30;22.60;99278.00;;;;344936;28;83340;-88
2021/09/15 00:00:14;;;;;;;;;;;22.60;94.30;22.50;99277.00;;;;345535;28;89801;-88
2021/09/15 00:00:26;;;;;;;;;;;22.60;94.20;22.50;99274.00;;;;348883;27;82393;-88
2021/09/15 00:00:38;;;;;;;;;;;22.60;94.10;22.60;99280.00;;;;344248;28;93042;-88
2021/09/15 00:00:50;;;;;;;;;;;22.60;94.00;22.60;99273.00;;;;344859;28;83497;-88
2021/09/15 00:01:02;;;;;;;;;;;22.60;94.10;22.60;99276.00;;;;347161;28;90549;-88
2021/09/15 00:01:14;;;;;;;;;;;22.60;94.00;22.60;99279.00;;;;347557;28;83559;-88
2021/09/15 00:01:26;;;;;;;;;;;22.60;94.10;22.70;99282.00;;;;345816;28;90695;-88
2021/09/15 00:01:38;;;;;;;;;;;22.60;94.00;22.80;99285.00;;;;346264;28;82382;-88
2021/09/15 00:01:50;;;;;;;;;;;22.60;94.10;22.80;99282.00;;;;347667;27;92015;-88
2021/09/15 00:02:02;;;;;;;;;;;22.60;94.00;22.80;99275.00;;;;347509;28;82503;-88
2021/09/15 00:02:13;;;;;;;;;;;22.60;94.00;22.70;99280.00;;;;347112;28;89010;-89
2021/09/15 00:02:25;;;;;;;;;;;22.60;94.10;22.60;99273.00;;;;347620;28;82500;-88
2021/09/15 00:02:37;;;;;;;;;;;22.60;94.10;22.60;99286.00;;;;345606;28;92844;-88
2021/09/15 00:02:49;;;;;;;;;;;22.60;94.10;22.70;99286.00;;;;346273;28;83337;-88
2021/09/15 00:03:01;;;;;;;;;;;22.60;94.10;22.70;99283.00;;;;345708;28;91862;-88
2021/09/15 00:03:13;;;;;;;;;;;22.60;94.00;22.70;99281.00;;;;348987;27;82471;-88
2021/09/15 00:03:24;;;;;;;;;;;22.60;94.10;22.60;99281.00;;;;349967;27;90373;-88
2021/09/15 00:03:37;;;;;;;;;;;22.60;94.00;22.60;99287.00;;;;349015;27;83404;-88
2021/09/15 00:03:48;;;;;;;;;;;22.60;94.00;22.70;99284.00;;;;346835;28;90431;-88
2021/09/15 00:04:00;;;;;;;;;;;22.60;94.00;22.70;99293.00;;;;344773;28;83316;-88
2021/09/15 00:04:12;;;;;;;;;;;22.60;93.90;22.60;99288.00;;;;347136;28;91658;-88
2021/09/15 00:04:24;;;;;;;;;;;22.60;93.90;22.60;99292.00;;;;346371;28;82369;-88
2021/09/15 00:04:36;;;;;;;;;;;22.60;94.00;22.60;99293.00;;;;347076;28;91251;-88
2021/09/15 00:04:47;;;;;;;;;;;22.60;94.00;22.60;99288.00;;;;346731;28;82475;-88
2021/09/15 00:04:59;;;;;;;;;;;22.60;93.90;22.60;99305.00;;;;345732;28;90562;-88
2021/09/15 00:05:11;;;;;;;;;;;22.60;93.80;22.60;99290.00;;;;346144;28;83450;-87
2021/09/15 00:05:23;;;;;;;;;;;22.60;93.80;22.60;99295.00;;;;344364;28;94119;-88
2021/09/15 00:05:34;;;;;;;;;;;22.60;93.70;22.60;99293.00;;;;349074;27;82508;-88
2021/09/15 00:05:46;;;;;;;;;;;22.60;93.80;22.60;99295.00;;;;347121;27;91608;-88
2021/09/15 00:05:58;;;;;;;;;;;22.60;93.70;22.60;99297.00;;;;347661;28;83360;-88
2021/09/15 00:06:10;;;;;;;;;;;22.60;93.70;22.60;99298.00;;;;345820;28;90264;-87
2021/09/15 00:06:21;;;;;;;;;;;22.60;93.70;22.60;99295.00;;;;347685;28;83521;-88
2021/09/15 00:06:33;;;;;;;;;;;22.50;93.70;22.60;99298.00;;;;348261;27;91272;-88
2021/09/15 00:06:45;;;;;;;;;;;22.50;93.60;22.60;99297.00;;;;346185;28;83335;-88
2021/09/15 00:06:57;;;;;;;;;;;22.50;93.70;22.50;99295.00;;;;345876;28;88808;-88
2021/09/15 00:07:08;;;;;;;;;;;22.50;93.70;22.60;99296.00;;;;348944;27;83487;-88
2021/09/15 00:07:20;;;;;;;;;;;22.50;93.70;22.60;99306.00;;;;348598;27;90302;-88
2021/09/15 00:07:32;;;;;;;;;;;22.50;93.70;22.60;99306.00;;;;349137;27;83425;-88
2021/09/15 00:07:44;;;;;;;;;;;22.50;93.70;22.60;99306.00;;;;345565;28;90616;-88
2021/09/15 00:07:56;;;;;;;;;;;22.50;93.80;22.70;99293.00;;;;346233;28;82515;-88
2021/09/15 00:08:07;;;;;;;;;;;22.60;93.80;22.70;99294.00;;;;345828;28;92035;-88
2021/09/15 00:08:19;;;;;;;;;;;22.60;93.80;22.60;99296.00;;;;348535;27;83475;-88
2021/09/15 00:08:32;;;;;;;;;;;22.50;93.70;22.60;99294.00;;;;347084;28;92368;-88
2021/09/15 00:08:43;;;;;;;;;;;22.50;93.80;22.60;99299.00;;;;346274;28;83489;-88
2021/09/15 00:08:55;;;;;;;;;;;22.50;93.70;22.60;99300.00;;;;347055;28;89091;-88
2021/09/15 00:09:07;;;;;;;;;;;22.50;93.70;22.60;99298.00;;;;346188;28;83361;-88
2021/09/15 00:09:19;;;;;;;;;;;22.50;93.80;22.50;99295.00;;;;344428;28;88204;-88
2021/09/15 00:09:30;;;;;;;;;;;22.50;93.80;22.50;99306.00;;;;347525;28;83353;-88
2021/09/15 00:09:42;;;;;;;;;;;22.50;93.80;22.50;99305.00;;;;345740;28;92229;-87
2021/09/15 00:09:54;;;;;;;;;;;22.50;93.80;22.50;99298.00;;;;345561;28;82562;-88
2021/09/15 00:10:07;;;;;;;;;;;22.50;93.70;22.60;99293.00;;;;347565;28;90175;-88
2021/09/15 00:10:18;;;;;;;;;;;22.50;93.70;22.60;99308.00;;;;349210;28;82470;-88
2021/09/15 00:10:30;;;;;;;;;;;22.50;93.70;22.60;99300.00;;;;348509;28;91211;-88
2021/09/15 00:10:42;;;;;;;;;;;22.50;93.60;22.60;99305.00;;;;346769;28;82364;-87
2021/09/15 00:10:54;;;;;;;;;;;22.50;93.60;22.60;99295.00;;;;348619;28;90479;-88
2021/09/15 00:11:06;;;;;;;;;;;22.50;93.60;22.60;99297.00;;;;347844;28;82588;-88
2021/09/15 00:11:19;;;;;;;;;;;22.50;93.50;22.60;99304.00;;;;345376;28;90265;-89
2021/09/15 00:11:31;;;;;;;;;;;22.50;93.50;22.50;99296.00;;;;345284;28;82498;-88
2021/09/15 00:11:43;;;;;;;;;;;22.50;93.60;22.60;99304.00;;;;344655;28;90757;-87
2021/09/15 00:11:55;;;;;;;;;;;22.50;93.60;22.60;99306.00;;;;344875;28;82542;-87
2021/09/15 00:12:06;;;;;;;;;;;22.50;93.60;22.60;99307.00;;;;344461;28;90990;-89
2021/09/15 00:12:18;;;;;;;;;;;22.50;93.50;22.60;99310.00;;;;349084;28;82300;-88
2021/09/15 00:12:30;;;;;;;;;;;22.50;93.50;22.60;99306.00;;;;348232;28;90103;-88
2021/09/15 00:12:42;;;;;;;;;;;22.50;93.50;22.60;99309.00;;;;349031;28;83101;-87
2021/09/15 00:12:54;;;;;;;;;;;22.50;93.50;22.60;99306.00;;;;350325;27;90977;-88
2021/09/15 00:13:06;;;;;;;;;;;22.50;93.50;22.60;99306.00;;;;349378;28;82634;-88
2021/09/15 00:13:18;;;;;;;;;;;22.50;93.50;22.60;99300.00;;;;348800;28;90493;-88
2021/09/15 00:13:30;;;;;;;;;;;22.50;93.50;22.60;99307.00;;;;350774;27;82436;-88
2021/09/15 00:13:42;;;;;;;;;;;22.50;93.50;22.70;99309.00;;;;348797;28;88396;-88
2021/09/15 00:13:54;;;;;;;;;;;22.50;93.70;22.60;99306.00;;;;348882;28;82490;-90
2021/09/15 00:14:05;;;;;;;;;;;22.50;93.70;22.60;99310.00;;;;349722;27;87677;-89
2021/09/15 00:14:17;;;;;;;;;;;22.50;93.70;22.60;99310.00;;;;347713;28;82584;-88
2021/09/15 00:14:29;;;;;;;;;;;22.50;93.70;22.60;99307.00;;;;348535;28;91327;-88
2021/09/15 00:14:41;;;;;;;;;;;22.50;93.60;22.60;99307.00;;;;350271;27;82476;-87
2021/09/15 00:14:52;;;;;;;;;;;22.50;93.60;22.60;99309.00;;;;351276;27;89297;-87
2021/09/15 00:15:06;;;;;;;;;;;22.50;93.60;22.60;99315.00;;;;349209;28;82596;-89
2021/09/15 00:15:18;;;;;;;;;;;22.50;93.70;22.60;99305.00;;;;350073;27;90195;-87
2021/09/15 00:15:30;;;;;;;;;;;22.50;93.60;22.60;99315.00;;;;350527;27;82547;-88
2021/09/15 00:15:41;;;;;;;;;;;22.50;93.60;22.60;99315.00;;;;348966;28;90832;-87
2021/09/15 00:15:53;;;;;;;;;;;22.50;93.60;22.60;99310.00;;;;347770;28;82456;-87
2021/09/15 00:16:05;;;;;;;;;;;22.50;93.60;22.60;99307.00;;;;348723;28;91703;-87
2021/09/15 00:16:17;;;;;;;;;;;22.50;93.60;22.60;99313.00;;;;349063;28;82521;-88
2021/09/15 00:16:29;;;;;;;;;;;22.50;93.70;22.60;99316.00;;;;347090;28;89364;-89
2021/09/15 00:16:41;;;;;;;;;;;22.50;93.70;22.60;99313.00;;;;348948;28;82540;-88
2021/09/15 00:16:53;;;;;;;;;;;22.50;93.70;22.60;99310.00;;;;345421;28;92047;-87
2021/09/15 00:17:04;;;;;;;;;;;22.50;93.70;22.60;99310.00;;;;348986;28;82577;-87
2021/09/15 00:17:16;;;;;;;;;;;22.50;93.50;22.70;99313.00;;;;346972;28;90714;-89
2021/09/15 00:17:30;;;;;;;;;;;22.50;93.60;22.70;99322.00;;;;348747;28;82581;-88
2021/09/15 00:17:42;;;;;;;;;;;22.50;93.50;22.60;99315.00;;;;345665;28;87996;-87
2021/09/15 00:17:54;;;;;;;;;;;22.50;93.60;22.70;99318.00;;;;348694;27;82543;-87
2021/09/15 00:18:05;;;;;;;;;;;22.50;93.60;22.70;99308.00;;;;350097;27;89032;-87
2021/09/15 00:18:17;;;;;;;;;;;22.50;93.50;22.70;99315.00;;;;351959;27;82523;-87
2021/09/15 00:18:29;;;;;;;;;;;22.50;93.50;22.60;99314.00;;;;348559;27;92128;-87
2021/09/15 00:18:41;;;;;;;;;;;22.50;93.50;22.60;99319.00;;;;347720;28;82515;-88
2021/09/15 00:18:52;;;;;;;;;;;22.50;93.50;22.60;99319.00;;;;348718;28;90182;-89
2021/09/15 00:19:04;;;;;;;;;;;22.50;93.60;22.70;99321.00;;;;348906;28;82477;-88
2021/09/15 00:19:16;;;;;;;;;;;22.50;93.60;22.60;99319.00;;;;348667;28;88104;-87
2021/09/15 00:19:28;;;;;;;;;;;22.50;93.60;22.70;99319.00;;;;348850;28;82583;-87
2021/09/15 00:19:40;;;;;;;;;;;22.50;93.60;22.70;99312.00;;;;348354;28;92350;-88
2021/09/15 00:19:51;;;;;;;;;;;22.50;93.60;22.60;99326.00;;;;345653;28;82506;-88
2021/09/15 00:20:05;;;;;;;;;;;22.60;93.60;22.60;99317.00;;;;348631;28;90482;-88
2021/09/15 00:20:17;;;;;;;;;;;22.50;93.50;22.60;99322.00;;;;348857;28;82482;-88
2021/09/15 00:20:28;;;;;;;;;;;22.60;93.60;22.70;99313.00;;;;347060;28;90270;-87
2021/09/15 00:20:40;;;;;;;;;;;22.50;93.50;22.60;99313.00;;;;347725;28;82417;-87
2021/09/15 00:20:52;;;;;;;;;;;22.60;93.40;22.60;99324.00;;;;346903;28;91356;-88
2021/09/15 00:21:04;;;;;;;;;;;22.60;93.40;22.60;99314.00;;;;347570;28;82337;-89
2021/09/15 00:21:15;;;;;;;;;;;22.50;93.40;22.60;99321.00;;;;348655;28;87994;-88
2021/09/15 00:21:29;;;;;;;;;;;22.60;93.40;22.60;99317.00;;;;347552;28;82839;-87
2021/09/15 00:21:40;;;;;;;;;;;22.60;93.40;22.70;99318.00;;;;346835;28;92104;-88
2021/09/15 00:21:52;;;;;;;;;;;22.60;93.50;22.70;99324.00;;;;347107;28;82435;-88
2021/09/15 00:22:04;;;;;;;;;;;22.60;93.50;22.70;99324.00;;;;347122;28;88858;-88
2021/09/15 00:22:16;;;;;;;;;;;22.60;93.60;22.60;99327.00;;;;344850;28;82511;-88
2021/09/15 00:22:27;;;;;;;;;;;22.60;93.60;22.70;99323.00;;;;348222;28;89312;-89
2021/09/15 00:22:40;;;;;;;;;;;22.60;93.60;22.70;99326.00;;;;349003;28;82582;-88
2021/09/15 00:22:52;;;;;;;;;;;22.60;93.60;22.70;99325.00;;;;347537;28;91140;-87
2021/09/15 00:23:03;;;;;;;;;;;22.60;93.60;22.70;99325.00;;;;349091;27;82429;-87
2021/09/15 00:23:15;;;;;;;;;;;22.60;93.20;22.70;99323.00;;;;346006;28;91058;-87
2021/09/15 00:23:27;;;;;;;;;;;22.60;93.10;22.70;99324.00;;;;346628;28;82536;-87
2021/09/15 00:23:39;;;;;;;;;;;22.60;93.10;22.70;99315.00;;;;347179;28;90789;-88
2021/09/15 00:23:50;;;;;;;;;;;22.60;93.20;22.70;99325.00;;;;349028;27;83241;-89
2021/09/15 00:24:02;;;;;;;;;;;22.60;93.20;22.70;99323.00;;;;347107;28;90975;-88
2021/09/15 00:24:14;;;;;;;;;;;22.60;93.20;22.70;99322.00;;;;344813;28;83408;-88
2021/09/15 00:24:26;;;;;;;;;;;22.60;93.00;22.70;99326.00;;;;345594;28;92827;-88
2021/09/15 00:24:37;;;;;;;;;;;22.60;93.10;22.70;99319.00;;;;347204;28;82588;-88
2021/09/15 00:24:49;;;;;;;;;;;22.60;93.10;22.70;99321.00;;;;347218;28;89006;-88
2021/09/15 00:25:01;;;;;;;;;;;22.60;93.10;22.70;99323.00;;;;347535;28;83294;-88
2021/09/15 00:25:13;;;;;;;;;;;22.60;93.10;22.70;99324.00;;;;346833;27;90244;-88
2021/09/15 00:25:25;;;;;;;;;;;22.60;93.10;22.80;99319.00;;;;347426;28;82561;-88
2021/09/15 00:25:37;;;;;;;;;;;22.60;93.20;22.80;99324.00;;;;347097;28;91218;-88
2021/09/15 00:25:49;;;;;;;;;;;22.60;93.30;22.70;99322.00;;;;346688;28;83566;-88
2021/09/15 00:26:01;;;;;;;;;;;22.60;93.30;22.70;99324.00;;;;346961;28;92179;-88
2021/09/15 00:26:12;;;;;;;;;;;22.60;93.30;22.80;99325.00;;;;348859;27;83431;-89
2021/09/15 00:26:25;;;;;;;;;;;22.60;93.30;22.80;99311.00;;;;345610;28;92184;-88
2021/09/15 00:26:36;;;;;;;;;;;22.60;93.30;22.80;99317.00;;;;346114;28;82582;-88
2021/09/15 00:26:48;;;;;;;;;;;22.60;93.30;22.70;99321.00;;;;345801;28;89638;-88
2021/09/15 00:27:00;;;;;;;;;;;22.60;93.30;22.80;99315.00;;;;347382;28;83290;-88
2021/09/15 00:27:12;;;;;;;;;;;22.60;93.40;22.70;99314.00;;;;346849;28;91797;-88
2021/09/15 00:27:23;;;;;;;;;;;22.60;93.40;22.80;99318.00;;;;346136;28;83218;-88
2021/09/15 00:27:35;;;;;;;;;;;22.60;93.40;22.80;99315.00;;;;348421;27;91061;-88
2021/09/15 00:27:47;;;;;;;;;;;22.60;93.30;22.80;99322.00;;;;348892;27;83438;-88
2021/09/15 00:27:59;;;;;;;;;;;22.60;93.40;22.70;99315.00;;;;347092;28;90548;-88
2021/09/15 00:28:10;;;;;;;;;;;22.60;93.40;22.70;99315.00;;;;346050;28;83377;-88
2021/09/15 00:28:22;;;;;;;;;;;22.60;93.40;22.70;99316.00;;;;342694;28;92711;-88
2021/09/15 00:28:34;;;;;;;;;;;22.60;93.40;22.80;99316.00;;;;346040;28;83445;-88
2021/09/15 00:28:46;;;;;;;;;;;22.60;93.40;22.80;99320.00;;;;345283;28;91538;-88
2021/09/15 00:28:57;;;;;;;;;;;22.60;93.50;22.80;99317.00;;;;344598;28;82716;-88
2021/09/15 00:29:09;;;;;;;;;;;22.60;93.50;22.80;99317.00;;;;345568;28;91568;-88
2021/09/15 00:29:21;;;;;;;;;;;22.60;93.40;22.90;99312.00;;;;345968;28;83516;-88
2021/09/15 00:29:33;;;;;;;;;;;22.60;93.20;22.90;99321.00;;;;347050;28;92243;-88
2021/09/15 00:29:45;;;;;;;;;;;22.70;93.20;22.90;99317.00;;;;344726;28;83391;-88
2021/09/15 00:29:56;;;;;;;;;;;22.70;93.10;22.80;99323.00;;;;345714;28;91220;-88
2021/09/15 00:30:08;;;;;;;;;;;22.70;93.20;22.80;99313.00;;;;346153;28;83416;-88
2021/09/15 00:30:20;;;;;;;;;;;22.70;93.30;22.90;99317.00;;;;346968;28;92259;-88
2021/09/15 00:30:32;;;;;;;;;;;22.70;93.30;22.90;99315.00;;;;347401;28;82568;-88
2021/09/15 00:30:44;;;;;;;;;;;22.70;93.30;22.80;99320.00;;;;345678;28;92288;-88
2021/09/15 00:30:56;;;;;;;;;;;22.70;93.30;22.80;99310.00;;;;347317;28;82416;-88
2021/09/15 00:31:07;;;;;;;;;;;22.70;93.30;22.80;99313.00;;;;345561;28;91175;-87
2021/09/15 00:31:19;;;;;;;;;;;22.70;93.30;22.80;99308.00;;;;346093;28;82498;-88
2021/09/15 00:31:31;;;;;;;;;;;22.70;93.30;22.80;99315.00;;;;347070;28;91459;-87
2021/09/15 00:31:43;;;;;;;;;;;22.70;93.30;22.80;99311.00;;;;347326;27;83550;-88
2021/09/15 00:31:54;;;;;;;;;;;22.70;93.40;22.80;99322.00;;;;346955;28;87210;-87
2021/09/15 00:32:06;;;;;;;;;;;22.70;93.40;22.90;99320.00;;;;348893;27;83397;-88
2021/09/15 00:32:18;;;;;;;;;;;22.70;93.30;22.90;99319.00;;;;346959;28;91362;-88
2021/09/15 00:32:30;;;;;;;;;;;22.70;93.30;22.80;99315.00;;;;345903;28;83496;-88
2021/09/15 00:32:42;;;;;;;;;;;22.70;93.30;22.80;99310.00;;;;345723;28;90817;-88
2021/09/15 00:32:54;;;;;;;;;;;22.70;93.40;22.70;99305.00;;;;348813;27;83509;-88
2021/09/15 00:33:06;;;;;;;;;;;22.70;93.30;22.80;99317.00;;;;349628;27;91365;-88
2021/09/15 00:33:17;;;;;;;;;;;22.70;93.30;22.80;99306.00;;;;348981;27;82510;-88
2021/09/15 00:33:29;;;;;;;;;;;22.70;93.30;22.80;99312.00;;;;345700;28;91525;-88
2021/09/15 00:33:41;;;;;;;;;;;22.70;93.20;22.80;99311.00;;;;347521;28;83575;-88
2021/09/15 00:33:53;;;;;;;;;;;22.70;93.20;22.80;99305.00;;;;345738;28;88721;-88
2021/09/15 00:34:05;;;;;;;;;;;22.70;93.10;22.80;99317.00;;;;344800;28;83416;-88
2021/09/15 00:34:17;;;;;;;;;;;22.70;93.10;22.80;99318.00;;;;345590;28;92923;-88
2021/09/15 00:34:30;;;;;;;;;;;22.70;93.10;22.80;99312.00;;;;345961;28;83468;-88
2021/09/15 00:34:41;;;;;;;;;;;22.70;93.10;22.90;99299.00;;;;348551;27;88997;-88
2021/09/15 00:34:53;;;;;;;;;;;22.70;93.10;22.90;99305.00;;;;348522;27;83416;-88
2021/09/15 00:35:07;;;;;;;;;;;22.70;93.10;22.90;99304.00;;;;346736;27;91830;-88
2021/09/15 00:35:18;;;;;;;;;;;22.70;93.10;22.80;99311.00;;;;346071;28;83391;-88
2021/09/15 00:35:30;;;;;;;;;;;22.70;92.90;22.90;99299.00;;;;344405;28;88530;-88
2021/09/15 00:35:42;;;;;;;;;;;22.70;92.90;22.90;99306.00;;;;348704;27;83200;-88
2021/09/15 00:35:54;;;;;;;;;;;22.80;93.00;22.90;99309.00;;;;346812;27;92176;-88
2021/09/15 00:36:05;;;;;;;;;;;22.80;92.90;22.90;99311.00;;;;348921;27;83377;-88
2021/09/15 00:36:17;;;;;;;;;;;22.70;92.90;22.90;99307.00;;;;347043;28;93132;-87
2021/09/15 00:36:29;;;;;;;;;;;22.80;93.00;22.90;99297.00;;;;345968;28;83497;-88
2021/09/15 00:36:41;;;;;;;;;;;22.80;93.10;22.90;99306.00;;;;347093;28;90746;-88
2021/09/15 00:36:52;;;;;;;;;;;22.70;93.00;22.90;99314.00;;;;344776;28;83380;-88
2021/09/15 00:37:04;;;;;;;;;;;22.70;93.00;22.90;99310.00;;;;344264;28;91392;-88
2021/09/15 00:37:16;;;;;;;;;;;22.80;93.00;22.90;99312.00;;;;347480;28;83460;-88
2021/09/15 00:37:28;;;;;;;;;;;22.80;93.00;22.80;99298.00;;;;347091;28;86817;-87
2021/09/15 00:37:40;;;;;;;;;;;22.80;93.00;22.90;99306.00;;;;348680;27;83202;-88
2021/09/15 00:37:51;;;;;;;;;;;22.80;92.60;22.90;99309.00;;;;346471;28;89119;-88
2021/09/15 00:38:03;;;;;;;;;;;22.80;92.60;22.90;99309.00;;;;344693;28;83438;-88
2021/09/15 00:38:15;;;;;;;;;;;22.80;92.60;22.80;99308.00;;;;345512;28;92373;-88
2021/09/15 00:38:27;;;;;;;;;;;22.80;92.70;22.90;99306.00;;;;346079;28;83393;-88
2021/09/15 00:38:38;;;;;;;;;;;22.80;92.70;22.90;99304.00;;;;345687;28;90183;-88
2021/09/15 00:38:50;;;;;;;;;;;22.80;92.80;22.90;99296.00;;;;345425;28;83513;-88
2021/09/15 00:39:02;;;;;;;;;;;22.80;92.80;22.90;99296.00;;;;347014;28;92228;-89
2021/09/15 00:39:14;;;;;;;;;;;22.80;92.60;22.90;99300.00;;;;347481;28;82525;-88
2021/09/15 00:39:25;;;;;;;;;;;22.80;92.60;22.90;99296.00;;;;347090;28;91307;-88
2021/09/15 00:39:37;;;;;;;;;;;22.80;92.50;22.90;99307.00;;;;347498;28;83475;-88
2021/09/15 00:39:49;;;;;;;;;;;22.80;92.50;22.90;99297.00;;;;346787;27;92518;-88
2021/09/15 00:40:01;;;;;;;;;;;22.80;92.60;22.90;99304.00;;;;348899;27;82521;-88
2021/09/15 00:40:12;;;;;;;;;;;22.80;92.60;22.90;99307.00;;;;347077;28;90009;-88
2021/09/15 00:40:24;;;;;;;;;;;22.80;92.60;22.90;99296.00;;;;346026;28;82371;-89
2021/09/15 00:40:36;;;;;;;;;;;22.80;92.60;22.90;99300.00;;;;345628;28;89074;-87
2021/09/15 00:40:48;;;;;;;;;;;22.80;92.60;22.90;99296.00;;;;347122;28;83742;-88
2021/09/15 00:41:00;;;;;;;;;;;22.80;92.60;23.00;99300.00;;;;345838;28;91920;-88
2021/09/15 00:41:11;;;;;;;;;;;22.80;92.60;22.90;99299.00;;;;348900;27;83137;-88
2021/09/15 00:41:23;;;;;;;;;;;22.80;92.60;22.90;99295.00;;;;348535;27;92212;-88
2021/09/15 00:41:35;;;;;;;;;;;22.80;92.60;22.90;99293.00;;;;345831;28;83458;-87
2021/09/15 00:41:47;;;;;;;;;;;22.80;92.50;22.90;99295.00;;;;347996;27;92136;-88
2021/09/15 00:41:59;;;;;;;;;;;22.80;92.50;22.90;99291.00;;;;348965;27;82421;-88
2021/09/15 00:42:11;;;;;;;;;;;22.80;92.50;22.80;99296.00;;;;345067;28;91408;-88
2021/09/15 00:42:22;;;;;;;;;;;22.80;92.50;22.90;99298.00;;;;347488;28;83296;-88
2021/09/15 00:42:34;;;;;;;;;;;22.80;92.50;22.90;99300.00;;;;346959;28;92113;-87
2021/09/15 00:42:47;;;;;;;;;;;22.80;92.50;22.80;99305.00;;;;348903;27;82530;-88
2021/09/15 00:42:59;;;;;;;;;;;22.80;92.50;22.90;99305.00;;;;345692;28;89227;-87
2021/09/15 00:43:10;;;;;;;;;;;22.80;92.50;22.90;99292.00;;;;347478;28;83486;-88
2021/09/15 00:43:23;;;;;;;;;;;22.80;92.50;22.80;99291.00;;;;347071;28;92316;-88
2021/09/15 00:44:14;;;;;;;;;;;22.80;92.50;22.90;99289.00;;;;346165;28;83902;-88
2021/09/15 00:44:26;;;;;;;;;;;22.80;92.40;22.90;99294.00;;;;347027;27;91195;-88
2021/09/15 00:44:38;;;;;;;;;;;22.80;92.30;22.90;99288.00;;;;347376;28;82661;-88
2021/09/15 00:44:50;;;;;;;;;;;22.80;92.20;22.90;99292.00;;;;345579;28;92149;-88
2021/09/15 00:45:01;;;;;;;;;;;22.80;92.00;22.90;99292.00;;;;347533;28;82519;-88
2021/09/15 00:45:13;;;;;;;;;;;22.80;92.00;22.90;99285.00;;;;345671;28;91869;-88
2021/09/15 00:45:25;;;;;;;;;;;22.80;92.00;22.90;99281.00;;;;345950;28;83509;-88
2021/09/15 00:45:37;;;;;;;;;;;22.80;92.10;22.90;99289.00;;;;348358;27;92337;-88
2021/09/15 00:45:49;;;;;;;;;;;22.80;92.10;22.90;99287.00;;;;347466;28;83327;-87
2021/09/15 00:46:00;;;;;;;;;;;22.80;92.10;22.80;99289.00;;;;345754;28;89295;-88
2021/09/15 00:46:12;;;;;;;;;;;22.80;92.20;22.90;99287.00;;;;344675;28;83452;-88
2021/09/15 00:46:24;;;;;;;;;;;22.80;92.20;22.80;99288.00;;;;347057;28;91747;-88
2021/09/15 00:46:36;;;;;;;;;;;22.80;92.20;22.90;99289.00;;;;346075;28;83532;-88
2021/09/15 00:46:48;;;;;;;;;;;22.80;92.10;22.90;99289.00;;;;345183;28;90151;-88
2021/09/15 00:47:00;;;;;;;;;;;22.80;91.70;22.90;99283.00;;;;346355;28;83386;-88
2021/09/15 00:47:12;;;;;;;;;;;22.80;91.30;23.00;99287.00;;;;347070;27;87857;-88
2021/09/15 00:47:24;;;;;;;;;;;22.80;91.20;23.00;99286.00;;;;346181;28;82413;-88
2021/09/15 00:47:36;;;;;;;;;;;22.80;91.30;23.00;99285.00;;;;347045;28;90650;-88
2021/09/15 00:47:47;;;;;;;;;;;22.80;91.20;23.00;99285.00;;;;344900;28;82598;-88
2021/09/15 00:47:59;;;;;;;;;;;22.80;91.10;23.00;99281.00;;;;345710;28;91994;-88
2021/09/15 00:48:11;;;;;;;;;;;22.80;91.20;23.00;99287.00;;;;346156;28;83438;-89
2021/09/15 00:48:23;;;;;;;;;;;22.80;91.20;23.00;99280.00;;;;347114;28;88785;-88
2021/09/15 00:48:35;;;;;;;;;;;22.80;91.20;23.00;99289.00;;;;346064;28;83463;-88
2021/09/15 00:48:47;;;;;;;;;;;22.80;91.10;23.00;99286.00;;;;345563;28;92441;-88
2021/09/15 00:48:58;;;;;;;;;;;22.80;90.90;23.00;99288.00;;;;345993;28;83505;-88
2021/09/15 00:49:10;;;;;;;;;;;22.90;91.00;23.00;99285.00;;;;348487;27;88123;-88
2021/09/15 00:49:22;;;;;;;;;;;22.80;91.10;23.00;99287.00;;;;347307;28;83398;-88
2021/09/15 00:49:34;;;;;;;;;;;22.90;91.20;23.00;99288.00;;;;345809;28;88856;-88
2021/09/15 00:49:45;;;;;;;;;;;22.80;91.30;23.00;99289.00;;;;347536;27;83543;-88
2021/09/15 00:49:57;;;;;;;;;;;22.80;91.40;23.00;99289.00;;;;343756;28;88350;-88
2021/09/15 00:50:09;;;;;;;;;;;22.90;91.50;23.00;99294.00;;;;344708;28;83448;-88
2021/09/15 00:50:21;;;;;;;;;;;22.90;91.60;23.00;99288.00;;;;344291;28;89165;-88
2021/09/15 00:50:33;;;;;;;;;;;22.80;91.50;23.00;99289.00;;;;346120;28;83559;-88
2021/09/15 00:50:45;;;;;;;;;;;22.80;91.30;23.00;99290.00;;;;344178;28;92499;-88
2021/09/15 00:50:56;;;;;;;;;;;22.90;91.40;23.00;99289.00;;;;347491;28;82545;-88
2021/09/15 00:51:08;;;;;;;;;;;22.90;91.00;23.00;99293.00;;;;348344;27;91004;-88
2021/09/15 00:51:20;;;;;;;;;;;22.90;91.10;23.00;99294.00;;;;347479;28;83264;-88
2021/09/15 00:51:37;;;;;;;;;;;22.90;91.20;23.10;99288.00;;;;345690;28;91380;-88
2021/09/15 00:51:49;;;;;;;;;;;22.90;91.00;23.10;99290.00;;;;345849;28;83556;-88
2021/09/15 00:52:01;;;;;;;;;;;22.90;90.50;23.10;99291.00;;;;344276;28;90261;-88
2021/09/15 00:52:13;;;;;;;;;;;22.90;89.90;23.10;99289.00;;;;346110;28;83470;-88
2021/09/15 00:52:24;;;;;;;;;;;22.90;89.10;23.20;99288.00;;;;344230;28;91575;-88
2021/09/15 00:52:36;;;;;;;;;;;23.00;88.20;23.20;99291.00;;;;346171;28;82435;-88
2021/09/15 00:52:48;;;;;;;;;;;23.00;88.80;23.20;99293.00;;;;345863;27;92816;-88
2021/09/15 00:53:01;;;;;;;;;;;23.00;88.70;23.20;99294.00;;;;346101;28;84596;-88
2021/09/15 00:53:13;;;;;;;;;;;23.00;88.80;23.20;99300.00;;;;344146;28;91647;-88
2021/09/15 00:53:25;;;;;;;;;;;23.00;88.70;23.20;99305.00;;;;346186;28;83410;-88
2021/09/15 00:53:36;;;;;;;;;;;23.00;88.90;23.20;99299.00;;;;347111;28;91374;-88
2021/09/15 00:53:48;;;;;;;;;;;23.00;89.30;23.20;99299.00;;;;345088;28;83780;-88
2021/09/15 00:54:00;;;;;;;;;;;23.00;89.10;23.20;99298.00;;;;344255;28;91878;-88
2021/09/15 00:54:12;;;;;;;;;;;23.00;89.10;23.20;99306.00;;;;344684;28;83403;-88
2021/09/15 00:54:24;;;;;;;;;;;23.00;89.30;23.20;99294.00;;;;344279;28;91224;-88
2021/09/15 00:54:36;;;;;;;;;;;23.00;89.30;23.20;99300.00;;;;344712;28;82604;-88
2021/09/15 00:54:47;;;;;;;;;;;23.00;89.60;23.20;99308.00;;;;345535;28;91824;-88
2021/09/15 00:54:59;;;;;;;;;;;23.00;90.00;23.20;99307.00;;;;346078;28;84184;-87
2021/09/15 00:55:11;;;;;;;;;;;23.00;89.90;23.20;99296.00;;;;345658;28;90809;-87
2021/09/15 00:55:23;;;;;;;;;;;23.00;90.00;23.20;99294.00;;;;347476;28;83438;-87
2021/09/15 00:55:35;;;;;;;;;;;23.00;90.00;23.10;99298.00;;;;345702;28;92207;-88
2021/09/15 00:55:47;;;;;;;;;;;23.00;90.00;23.20;99294.00;;;;347683;27;82493;-87
2021/09/15 00:55:58;;;;;;;;;;;23.00;90.20;23.20;99293.00;;;;346777;28;90891;-87
2021/09/15 00:56:10;;;;;;;;;;;23.00;90.60;23.20;99293.00;;;;347204;28;82521;-88
2021/09/15 00:56:22;;;;;;;;;;;23.00;90.70;23.20;99292.00;;;;349542;27;91026;-88
2021/09/15 00:56:34;;;;;;;;;;;23.00;90.70;23.20;99283.00;;;;348608;27;82614;-87
2021/09/15 00:56:45;;;;;;;;;;;23.00;90.60;23.10;99292.00;;;;346893;28;92310;-88
2021/09/15 00:56:57;;;;;;;;;;;23.00;90.40;23.20;99298.00;;;;347423;28;82540;-88
2021/09/15 00:57:10;;;;;;;;;;;23.00;90.50;23.10;99293.00;;;;346988;28;91753;-88
2021/09/15 00:57:22;;;;;;;;;;;23.00;90.40;23.20;99289.00;;;;346196;28;82348;-88
2021/09/15 00:57:34;;;;;;;;;;;23.00;89.90;23.20;99296.00;;;;348462;27;92160;-88
2021/09/15 00:57:46;;;;;;;;;;;23.00;90.10;23.20;99291.00;;;;347572;28;82480;-88
2021/09/15 00:57:57;;;;;;;;;;;23.00;90.00;23.10;99293.00;;;;346929;27;91689;-88
2021/09/15 00:58:09;;;;;;;;;;;23.00;90.40;23.10;99304.00;;;;347507;28;83330;-88
2021/09/15 00:58:21;;;;;;;;;;;23.00;90.20;23.10;99295.00;;;;344234;28;90984;-88
2021/09/15 00:58:33;;;;;;;;;;;23.00;90.10;23.20;99297.00;;;;345882;28;82533;-88
2021/09/15 00:58:45;;;;;;;;;;;23.00;89.40;23.20;99297.00;;;;345137;28;93027;-87
2021/09/15 00:58:57;;;;;;;;;;;23.00;88.70;23.20;99300.00;;;;347109;28;83419;-88
2021/09/15 00:59:08;;;;;;;;;;;23.00;88.60;23.20;99292.00;;;;347017;28;91444;-88
2021/09/15 00:59:20;;;;;;;;;;;23.00;88.60;23.20;99299.00;;;;347355;28;83532;-88